createdAt,value
2017-05-05T00:02:48.269Z,10.47
2017-05-05T00:05:42.503Z,10.43
2017-05-05T00:08:36.729Z,10.42
2017-05-05T00:11:31.073Z,10.41
2017-05-05T00:14:25.368Z,10.42
2017-05-05T00:17:19.575Z,10.43
2017-05-05T00:20:14.383Z,10.44
2017-05-05T00:26:03.016Z,10.44
2017-05-05T00:28:57.341Z,10.44
2017-05-05T00:31:51.791Z,10.43
2017-05-05T00:37:40.466Z,10.43
2017-05-05T00:40:34.716Z,10.42
2017-05-05T00:43:29.061Z,10.42
2017-05-05T00:49:17.536Z,10.41
2017-05-05T00:52:11.740Z,10.39
2017-05-05T00:55:06.075Z,10.39
2017-05-05T00:58:00.376Z,10.38
2017-05-05T01:00:54.562Z,10.37
2017-05-05T01:09:37.269Z,10.38
2017-05-05T01:18:20.135Z,10.36
2017-05-05T01:21:14.465Z,10.36
2017-05-05T01:24:08.632Z,10.36
2017-05-05T01:27:02.931Z,10.37
2017-05-05T01:29:57.215Z,10.38
2017-05-05T01:32:51.484Z,10.37
2017-05-05T01:35:45.793Z,10.34
2017-05-05T01:38:40.129Z,10.34
2017-05-05T01:41:34.439Z,10.34
2017-05-05T01:44:28.690Z,10.33
2017-05-05T01:47:22.997Z,10.33
2017-05-05T01:50:17.371Z,10.34
2017-05-05T01:53:11.600Z,10.32
2017-05-05T01:56:05.795Z,10.33
2017-05-05T01:59:00.163Z,10.33
2017-05-05T02:01:54.459Z,10.31
2017-05-05T02:04:48.763Z,10.33
2017-05-05T02:07:42.981Z,10.33
2017-05-05T02:10:37.308Z,10.33
2017-05-05T02:13:31.714Z,10.35
2017-05-05T02:19:20.322Z,10.36
2017-05-05T02:22:14.657Z,10.36
2017-05-05T02:25:08.901Z,10.36
2017-05-05T02:28:03.181Z,10.35
2017-05-05T02:30:57.467Z,10.36
2017-05-05T02:33:51.790Z,10.37
2017-05-05T02:36:46.035Z,10.37
2017-05-05T02:39:40.248Z,10.38
2017-05-05T02:42:34.544Z,10.40
2017-05-05T02:45:28.782Z,10.40
2017-05-05T02:48:23.077Z,10.40
2017-05-05T02:51:17.259Z,10.40
2017-05-05T02:54:11.466Z,10.39
2017-05-05T02:57:05.708Z,10.38
2017-05-05T03:00:00.060Z,10.36
2017-05-05T03:02:54.301Z,10.37
2017-05-05T03:05:48.551Z,10.38
2017-05-05T03:08:42.827Z,10.40
2017-05-05T03:11:37.246Z,10.40
2017-05-05T03:17:25.754Z,10.41
2017-05-05T03:20:20.519Z,10.43
2017-05-05T03:23:14.838Z,10.43
2017-05-05T03:26:09.043Z,10.43
2017-05-05T03:29:03.328Z,10.42
2017-05-05T03:31:57.528Z,10.43
2017-05-05T03:34:51.755Z,10.45
2017-05-05T03:40:40.432Z,10.47
2017-05-05T03:43:34.726Z,10.47
2017-05-05T03:46:28.960Z,10.44
2017-05-05T03:49:23.186Z,10.40
2017-05-05T03:52:17.427Z,10.41
2017-05-05T03:55:11.723Z,10.43
2017-05-05T03:58:05.922Z,10.45
2017-05-05T04:01:00.192Z,10.46
2017-05-05T04:03:55.009Z,10.46
2017-05-05T04:06:49.321Z,10.48
2017-05-05T04:09:43.546Z,10.49
2017-05-05T04:12:37.887Z,10.50
2017-05-05T04:15:32.213Z,10.49
2017-05-05T04:18:26.458Z,10.50
2017-05-05T04:21:20.656Z,10.50
2017-05-05T04:24:14.979Z,10.50
2017-05-05T04:27:09.156Z,10.51
2017-05-05T04:30:03.412Z,10.52
2017-05-05T04:32:57.721Z,10.53
2017-05-05T04:38:46.244Z,10.52
2017-05-05T04:41:40.427Z,10.54
2017-05-05T04:44:34.654Z,10.56
2017-05-05T04:47:28.945Z,10.58
2017-05-05T04:50:23.286Z,10.60
2017-05-05T04:53:17.563Z,10.62
2017-05-05T04:56:11.855Z,10.63
2017-05-05T04:59:06.130Z,10.63
2017-05-05T05:02:00.473Z,10.63
2017-05-05T05:04:54.706Z,10.63
2017-05-05T05:07:49.116Z,10.63
2017-05-05T05:10:43.417Z,10.64
2017-05-05T05:13:37.667Z,10.64
2017-05-05T05:16:31.926Z,10.66
2017-05-05T05:19:26.205Z,10.68
2017-05-05T05:22:20.560Z,10.70
2017-05-05T05:25:14.877Z,10.73
2017-05-05T05:28:09.206Z,10.75
2017-05-05T05:31:03.454Z,10.78
2017-05-05T05:33:57.800Z,10.80
2017-05-05T05:36:52.114Z,10.81
2017-05-05T05:39:46.529Z,10.85
2017-05-05T05:42:40.845Z,10.88
2017-05-05T05:45:35.099Z,10.91
2017-05-05T05:48:29.314Z,10.92
2017-05-05T05:51:23.627Z,10.95
2017-05-05T05:54:17.910Z,10.97
2017-05-05T05:57:12.325Z,10.99
2017-05-05T06:00:06.679Z,11.01
2017-05-05T06:03:01.058Z,11.00
2017-05-05T06:05:55.480Z,11.05
2017-05-05T06:08:49.798Z,11.11
2017-05-05T06:11:44.333Z,11.17
2017-05-05T06:14:38.745Z,11.22
2017-05-05T06:17:32.970Z,11.25
2017-05-05T06:20:27.217Z,11.29
2017-05-05T06:23:21.550Z,11.34
2017-05-05T06:26:15.792Z,11.39
2017-05-05T06:32:04.613Z,11.44
2017-05-05T06:34:58.909Z,11.45
2017-05-05T06:37:53.262Z,11.46
2017-05-05T06:40:47.558Z,11.48
2017-05-05T06:43:41.920Z,11.54
2017-05-05T06:46:36.253Z,11.59
2017-05-05T06:49:30.579Z,11.63
2017-05-05T06:52:24.926Z,11.67
2017-05-05T06:55:19.325Z,11.68
2017-05-05T06:58:13.764Z,11.72
2017-05-05T07:01:08.189Z,11.78
2017-05-05T07:04:02.523Z,11.87
2017-05-05T07:06:56.899Z,11.93
2017-05-05T07:09:51.334Z,11.96
2017-05-05T07:12:45.781Z,11.98
2017-05-05T07:15:40.095Z,12.00
2017-05-05T07:18:34.562Z,12.03
2017-05-05T07:21:28.904Z,12.07
2017-05-05T07:24:23.262Z,12.10
2017-05-05T07:27:17.677Z,12.12
2017-05-05T07:30:12.069Z,12.12
2017-05-05T07:33:06.545Z,12.14
2017-05-05T07:36:00.934Z,12.14
2017-05-05T07:38:55.362Z,12.14
2017-05-05T07:41:49.679Z,12.14
2017-05-05T07:44:44.072Z,12.17
2017-05-05T07:47:38.499Z,12.20
2017-05-05T07:50:32.901Z,12.20
2017-05-05T07:53:27.459Z,12.24
2017-05-05T07:59:16.302Z,12.28
2017-05-05T08:02:10.611Z,12.28
2017-05-05T08:10:53.846Z,12.31
2017-05-05T08:13:48.244Z,12.33
2017-05-05T08:16:42.644Z,12.35
2017-05-05T08:19:36.996Z,12.38
2017-05-05T08:22:31.399Z,12.41
2017-05-05T08:25:25.802Z,12.43
2017-05-05T08:28:20.149Z,12.44
2017-05-05T08:31:14.406Z,12.47
2017-05-05T08:34:08.731Z,12.48
2017-05-05T08:37:03.137Z,12.51
2017-05-05T08:39:57.726Z,12.55
2017-05-05T08:42:52.250Z,12.59
2017-05-05T08:45:46.615Z,12.61
2017-05-05T08:48:41.165Z,12.64
2017-05-05T08:51:35.567Z,12.64
2017-05-05T08:54:29.996Z,12.66
2017-05-05T08:57:24.440Z,12.68
2017-05-05T09:00:18.813Z,12.72
2017-05-05T09:03:13.167Z,12.73
2017-05-05T09:06:07.551Z,12.73
2017-05-05T09:09:01.916Z,12.73
2017-05-05T09:11:56.298Z,12.73
2017-05-05T09:14:50.768Z,12.74
2017-05-05T09:17:45.086Z,12.80
2017-05-05T09:20:39.386Z,12.81
2017-05-05T09:23:33.733Z,12.96
2017-05-05T09:26:28.068Z,13.13
2017-05-05T09:29:22.483Z,13.22
2017-05-05T09:35:11.233Z,13.31
2017-05-05T09:38:05.666Z,13.33
2017-05-05T09:41:00.102Z,13.34
2017-05-05T09:43:54.588Z,13.32
2017-05-05T09:46:48.925Z,13.28
2017-05-05T09:49:43.424Z,13.24
2017-05-05T09:52:37.887Z,13.18
2017-05-05T09:55:32.206Z,13.19
2017-05-05T09:58:26.671Z,13.23
2017-05-05T10:01:21.120Z,13.27
2017-05-05T10:04:15.451Z,13.25
2017-05-05T10:07:10.147Z,13.28
2017-05-05T10:10:04.621Z,13.28
2017-05-05T10:12:58.977Z,13.33
2017-05-05T10:15:53.581Z,13.37
2017-05-05T10:18:47.990Z,13.42
2017-05-05T10:21:42.438Z,13.46
2017-05-05T10:24:36.841Z,13.53
2017-05-05T10:27:31.232Z,13.57
2017-05-05T10:30:25.679Z,13.61
2017-05-05T10:33:20.139Z,13.62
2017-05-05T10:36:14.564Z,13.61
2017-05-05T10:39:08.952Z,13.62
2017-05-05T10:42:03.308Z,13.67
2017-05-05T10:47:52.129Z,13.75
2017-05-05T10:50:46.516Z,13.71
2017-05-05T10:53:40.936Z,13.66
2017-05-05T10:56:35.334Z,13.62
2017-05-05T10:59:29.767Z,13.61
2017-05-05T11:02:24.288Z,13.67
2017-05-05T11:05:18.646Z,13.77
2017-05-05T11:08:13.216Z,13.82
2017-05-05T11:11:07.673Z,13.87
2017-05-05T11:14:02.232Z,13.98
2017-05-05T11:19:51.839Z,14.13
2017-05-05T11:22:46.257Z,14.10
2017-05-05T11:25:40.709Z,14.11
2017-05-05T11:28:35.279Z,14.09
2017-05-05T11:31:29.688Z,14.08
2017-05-05T11:34:24.124Z,14.10
2017-05-05T11:37:18.654Z,14.15
2017-05-05T11:40:13.227Z,14.23
2017-05-05T11:43:07.773Z,14.30
2017-05-05T11:46:02.173Z,14.33
2017-05-05T11:48:56.887Z,14.34
2017-05-05T11:51:51.314Z,14.39
2017-05-05T11:54:45.883Z,14.40
2017-05-05T11:57:40.646Z,14.43
2017-05-05T12:00:35.082Z,14.45
2017-05-05T12:03:29.628Z,14.46
2017-05-05T12:06:24.164Z,14.46
2017-05-05T12:09:18.709Z,14.49
2017-05-05T12:12:13.238Z,14.49
2017-05-05T12:15:07.843Z,14.42
2017-05-05T12:18:02.550Z,14.40
2017-05-05T12:20:57.001Z,14.41
2017-05-05T12:23:51.579Z,14.42
2017-05-05T12:26:46.082Z,14.44
2017-05-05T12:29:40.526Z,14.41
2017-05-05T12:32:35.035Z,14.37
2017-05-05T12:35:29.514Z,14.31
2017-05-05T12:38:24.050Z,14.31
2017-05-05T12:47:07.779Z,14.30
2017-05-05T12:50:02.262Z,14.31
2017-05-05T12:52:56.626Z,14.32
2017-05-05T12:55:51.002Z,14.31
2017-05-05T12:58:45.475Z,14.30
2017-05-05T13:01:39.861Z,14.29
2017-05-05T13:04:34.252Z,14.26
2017-05-05T13:07:28.686Z,14.26
2017-05-05T13:10:23.071Z,14.25
2017-05-05T13:13:17.419Z,14.22
2017-05-05T13:16:11.972Z,14.22
2017-05-05T13:19:06.489Z,14.22
2017-05-05T13:22:00.970Z,14.23
2017-05-05T13:24:55.296Z,14.25
2017-05-05T13:27:49.858Z,14.27
2017-05-05T13:30:44.297Z,14.26
2017-05-05T13:36:33.275Z,14.30
2017-05-05T13:39:27.837Z,14.32
2017-05-05T13:42:22.262Z,14.30
2017-05-05T13:45:16.662Z,14.29
2017-05-05T13:48:11.077Z,14.31
2017-05-05T13:51:05.698Z,14.32
2017-05-05T13:54:00.201Z,14.32
2017-05-05T13:56:54.891Z,14.29
2017-05-05T13:59:49.257Z,14.26
2017-05-05T14:02:43.729Z,14.26
2017-05-05T14:05:38.569Z,14.24
2017-05-05T14:08:33.067Z,14.22
2017-05-05T14:11:27.456Z,14.22
2017-05-05T14:14:21.950Z,14.26
2017-05-05T14:17:16.439Z,14.28
2017-05-05T14:20:10.918Z,14.29
2017-05-05T14:23:05.393Z,14.29
2017-05-05T14:25:59.912Z,14.30
2017-05-05T14:28:54.372Z,14.37
2017-05-05T14:31:49.297Z,14.43
2017-05-05T14:34:43.837Z,14.50
2017-05-05T14:37:38.298Z,14.64
2017-05-05T14:40:33.028Z,14.75
2017-05-05T14:43:27.433Z,14.84
2017-05-05T14:46:21.924Z,14.88
2017-05-05T14:49:16.440Z,14.88
2017-05-05T14:52:10.858Z,14.84
2017-05-05T14:55:05.312Z,14.82
2017-05-05T14:57:59.841Z,14.82
2017-05-05T15:00:54.326Z,14.88
2017-05-05T15:03:48.882Z,14.96
2017-05-05T15:06:43.350Z,15.10
2017-05-05T15:09:37.861Z,15.17
2017-05-05T15:15:26.972Z,15.23
2017-05-05T15:21:16.026Z,15.27
2017-05-05T15:24:10.562Z,15.27
2017-05-05T15:27:05.378Z,15.27
2017-05-05T15:29:59.868Z,15.27
2017-05-05T15:32:54.400Z,15.25
2017-05-05T15:35:48.896Z,15.22
2017-05-05T15:38:43.516Z,15.23
2017-05-05T15:41:38.018Z,15.28
2017-05-05T15:44:32.521Z,15.31
2017-05-05T15:47:27.189Z,15.32
2017-05-05T15:53:16.398Z,15.34
2017-05-05T15:56:10.793Z,15.34
2017-05-05T15:59:05.457Z,15.34
2017-05-05T16:01:59.828Z,15.35
2017-05-05T16:04:54.301Z,15.34
2017-05-05T16:07:48.858Z,15.36
2017-05-05T16:10:43.368Z,15.33
2017-05-05T16:13:37.935Z,15.31
2017-05-05T16:16:32.391Z,15.30
2017-05-05T16:19:27.166Z,15.29
2017-05-05T16:22:21.658Z,15.29
2017-05-05T16:25:16.245Z,15.29
2017-05-05T16:28:10.638Z,15.27
2017-05-05T16:31:05.082Z,15.27
2017-05-05T16:33:59.651Z,15.26
2017-05-05T16:36:54.165Z,15.21
2017-05-05T16:39:48.621Z,15.21
2017-05-05T16:42:43.178Z,15.21
2017-05-05T16:45:37.691Z,15.17
2017-05-05T16:48:32.261Z,15.17
2017-05-05T16:51:26.876Z,15.15
2017-05-05T16:54:21.371Z,15.13
2017-05-05T17:00:10.274Z,15.07
2017-05-05T17:03:04.790Z,15.02
2017-05-05T17:05:59.328Z,14.93
2017-05-05T17:08:53.779Z,14.86
2017-05-05T17:11:48.326Z,14.80
2017-05-05T17:14:42.854Z,14.75
2017-05-05T17:17:37.449Z,14.69
2017-05-05T17:20:31.959Z,14.64
2017-05-05T17:23:26.379Z,14.59
2017-05-05T17:26:20.756Z,14.53
2017-05-05T17:29:15.338Z,14.49
2017-05-05T17:32:10.067Z,14.45
2017-05-05T17:35:04.606Z,14.45
2017-05-05T17:37:59.118Z,14.44
2017-05-05T17:40:53.613Z,14.40
2017-05-05T17:43:48.107Z,14.39
2017-05-05T17:46:42.606Z,14.38
2017-05-05T17:49:36.955Z,14.34
2017-05-05T17:52:31.386Z,14.34
2017-05-05T17:55:25.851Z,14.33
2017-05-05T17:58:20.435Z,14.30
2017-05-05T18:01:14.899Z,14.25
2017-05-05T18:04:09.450Z,14.19
2017-05-05T18:07:03.902Z,14.16
2017-05-05T18:09:58.561Z,14.14
2017-05-05T18:12:52.929Z,14.15
2017-05-05T18:15:47.446Z,14.14
2017-05-05T18:21:36.228Z,14.12
2017-05-05T18:24:30.675Z,14.12
2017-05-05T18:27:25.171Z,14.12
2017-05-05T18:30:19.578Z,14.12
2017-05-05T18:33:14.212Z,14.11
2017-05-05T18:36:08.623Z,14.09
2017-05-05T18:39:03.178Z,14.09
2017-05-05T18:41:57.554Z,14.08
2017-05-05T18:44:52.018Z,14.05
2017-05-05T18:47:46.435Z,14.03
2017-05-05T18:50:40.874Z,14.00
2017-05-05T18:53:35.265Z,13.98
2017-05-05T18:56:29.738Z,13.97
2017-05-05T18:59:24.255Z,13.97
2017-05-05T19:02:18.634Z,13.96
2017-05-05T19:05:13.072Z,13.96
2017-05-05T19:08:07.591Z,13.95
2017-05-05T19:11:01.983Z,13.95
2017-05-05T19:13:56.299Z,13.90
2017-05-05T19:16:50.795Z,13.88
2017-05-05T19:19:45.274Z,13.86
2017-05-05T19:22:39.661Z,13.86
2017-05-05T19:25:34.079Z,13.86
2017-05-05T19:28:28.547Z,13.86
2017-05-05T19:31:23.048Z,13.86
2017-05-05T19:37:11.934Z,13.85
2017-05-05T19:40:06.414Z,13.84
2017-05-05T19:43:00.745Z,13.84
2017-05-05T19:45:55.151Z,13.84
2017-05-05T19:48:49.657Z,13.83
2017-05-05T19:51:44.097Z,13.82
2017-05-05T19:54:38.564Z,13.78
2017-05-05T19:57:32.897Z,13.78
2017-05-05T20:00:27.422Z,13.79
2017-05-05T20:03:21.821Z,13.79
2017-05-05T20:06:16.159Z,13.77
2017-05-05T20:09:10.588Z,13.74
2017-05-05T20:12:05.138Z,13.76
2017-05-05T20:14:59.630Z,13.77
2017-05-05T20:17:54.079Z,13.77
2017-05-05T20:20:48.503Z,13.77
2017-05-05T20:23:42.990Z,13.78
2017-05-05T20:26:37.380Z,13.78
2017-05-05T20:29:31.897Z,13.78
2017-05-05T20:32:26.282Z,13.78
2017-05-05T20:35:20.828Z,13.78
2017-05-05T20:38:15.318Z,13.79
2017-05-05T20:41:09.705Z,13.80
2017-05-05T20:44:04.161Z,13.80
2017-05-05T20:46:58.707Z,13.79
2017-05-05T20:49:53.327Z,13.79
2017-05-05T20:52:47.891Z,13.77
2017-05-05T20:55:42.319Z,13.76
2017-05-05T20:58:36.768Z,13.75
2017-05-05T21:01:31.361Z,13.76
2017-05-05T21:07:20.222Z,13.76
2017-05-05T21:13:09.029Z,13.73
2017-05-05T21:18:57.848Z,13.65
2017-05-05T21:21:52.217Z,13.62
2017-05-05T21:27:41.104Z,13.52
2017-05-05T21:30:35.503Z,13.45
2017-05-05T21:33:29.885Z,13.42
2017-05-05T21:36:24.281Z,13.36
2017-05-05T21:39:18.725Z,13.31
2017-05-05T21:42:13.139Z,13.22
2017-05-05T21:45:07.565Z,13.15
2017-05-05T21:48:01.961Z,13.10
2017-05-05T21:50:56.293Z,13.03
2017-05-05T21:53:50.709Z,13.03
2017-05-05T22:02:33.872Z,13.08
2017-05-05T22:05:28.218Z,13.11
2017-05-05T22:08:22.574Z,13.13
2017-05-05T22:11:16.947Z,13.11
2017-05-05T22:14:11.453Z,13.11
2017-05-05T22:17:05.810Z,13.14
2017-05-05T22:20:00.299Z,13.14
2017-05-05T22:22:54.752Z,13.15
2017-05-05T22:25:49.116Z,13.14
2017-05-05T22:28:43.569Z,13.14
2017-05-05T22:31:38.029Z,13.15
2017-05-05T22:34:32.392Z,13.18
2017-05-05T22:37:26.806Z,13.19
2017-05-05T22:40:21.150Z,13.21
2017-05-05T22:43:15.556Z,13.21
2017-05-05T22:46:10.025Z,13.20
2017-05-05T22:49:04.751Z,13.21
2017-05-05T22:51:59.197Z,13.21
2017-05-05T22:54:53.711Z,13.22
2017-05-05T22:57:48.133Z,13.22
2017-05-05T23:00:42.656Z,13.21
2017-05-05T23:03:37.071Z,13.21
2017-05-05T23:06:31.490Z,13.19
2017-05-05T23:09:25.892Z,13.19
2017-05-05T23:12:20.258Z,13.19
2017-05-05T23:15:14.694Z,13.18
2017-05-05T23:18:09.242Z,13.17
2017-05-05T23:26:52.427Z,13.09
2017-05-05T23:29:46.832Z,13.04
2017-05-05T23:32:41.188Z,12.97
2017-05-05T23:35:35.634Z,12.89
2017-05-05T23:38:29.982Z,12.83
2017-05-05T23:41:24.378Z,12.78
2017-05-05T23:47:13.081Z,12.69
2017-05-05T23:50:07.503Z,12.66
2017-05-05T23:53:01.901Z,12.60
2017-05-05T23:55:56.309Z,12.56
2017-05-05T23:58:50.695Z,12.53
